sensor_id;sensor_type;location;lat;lon;timestamp;temperature;humidity
34147;DHT22;20423;49.448;9.056;2022-12-26T00:00:42;9.30;99.90
34147;DHT22;20423;49.448;9.056;2022-12-26T00:03:07;9.20;99.90
34147;DHT22;20423;49.448;9.056;2022-12-26T00:05:36;9.10;99.90
34147;DHT22;20423;49.448;9.056;2022-12-26T00:08:02;9.10;99.90
34147;DHT22;20423;49.448;9.056;2022-12-26T00:10:27;9.10;99.90
34147;DHT22;20423;49.448;9.056;2022-12-26T00:12:53;9.10;99.90
34147;DHT22;20423;49.448;9.056;2022-12-26T00:15:19;9.10;99.90
34147;DHT22;20423;49.448;9.056;2022-12-26T00:17:44;9.20;99.90
34147;DHT22;20423;49.448;9.056;2022-12-26T00:20:10;9.20;99.90
34147;DHT22;20423;49.448;9.056;2022-12-26T00:22:48;9.10;99.90
34147;DHT22;20423;49.448;9.056;2022-12-26T00:25:14;9.10;99.90
34147;DHT22;20423;49.448;9.056;2022-12-26T00:27:41;9.00;99.90
34147;DHT22;20423;49.448;9.056;2022-12-26T00:30:07;9.00;99.90
34147;DHT22;20423;49.448;9.056;2022-12-26T00:32:33;9.00;99.90
34147;DHT22;20423;49.448;9.056;2022-12-26T00:34:59;8.90;99.90
34147;DHT22;20423;49.448;9.056;2022-12-26T00:37:24;8.80;99.90
34147;DHT22;20423;49.448;9.056;2022-12-26T00:39:50;8.70;99.90
34147;DHT22;20423;49.448;9.056;2022-12-26T00:42:16;8.60;99.90
34147;DHT22;20423;49.448;9.056;2022-12-26T00:44:41;8.70;99.90
34147;DHT22;20423;49.448;9.056;2022-12-26T00:47:07;8.80;99.90
34147;DHT22;20423;49.448;9.056;2022-12-26T00:49:33;8.90;99.90
34147;DHT22;20423;49.448;9.056;2022-12-26T00:51:58;9.00;99.90
34147;DHT22;20423;49.448;9.056;2022-12-26T00:54:24;9.20;99.90
34147;DHT22;20423;49.448;9.056;2022-12-26T00:56:50;9.20;99.90
34147;DHT22;20423;49.448;9.056;2022-12-26T00:59:15;9.30;99.90
34147;DHT22;20423;49.448;9.056;2022-12-26T01:01:41;9.30;99.90
34147;DHT22;20423;49.448;9.056;2022-12-26T01:04:07;9.30;99.90
34147;DHT22;20423;49.448;9.056;2022-12-26T01:06:32;9.30;99.90
34147;DHT22;20423;49.448;9.056;2022-12-26T01:08:58;9.30;99.90
34147;DHT22;20423;49.448;9.056;2022-12-26T01:11:24;9.30;99.90
34147;DHT22;20423;49.448;9.056;2022-12-26T01:14:15;9.40;99.90
34147;DHT22;20423;49.448;9.056;2022-12-26T01:16:43;9.30;99.90
34147;DHT22;20423;49.448;9.056;2022-12-26T01:19:10;9.30;99.90
34147;DHT22;20423;49.448;9.056;2022-12-26T01:21:35;9.20;99.90
34147;DHT22;20423;49.448;9.056;2022-12-26T01:24:02;9.10;99.90
34147;DHT22;20423;49.448;9.056;2022-12-26T01:26:28;9.00;99.90
34147;DHT22;20423;49.448;9.056;2022-12-26T01:28:54;8.90;99.90
34147;DHT22;20423;49.448;9.056;2022-12-26T01:31:21;8.90;99.90
34147;DHT22;20423;49.448;9.056;2022-12-26T01:33:47;8.80;99.90
34147;DHT22;20423;49.448;9.056;2022-12-26T01:36:34;8.80;99.90
34147;DHT22;20423;49.448;9.056;2022-12-26T01:39:00;8.80;99.90
34147;DHT22;20423;49.448;9.056;2022-12-26T01:41:26;8.80;99.90
34147;DHT22;20423;49.448;9.056;2022-12-26T01:44:01;8.80;99.90
34147;DHT22;20423;49.448;9.056;2022-12-26T01:46:41;8.90;99.90
34147;DHT22;20423;49.448;9.056;2022-12-26T01:49:15;8.90;99.90
34147;DHT22;20423;49.448;9.056;2022-12-26T01:51:53;8.90;99.90
34147;DHT22;20423;49.448;9.056;2022-12-26T01:54:21;8.90;99.90
34147;DHT22;20423;49.448;9.056;2022-12-26T02:00:36;9.00;99.90
34147;DHT22;20423;49.448;9.056;2022-12-26T02:03:03;9.00;99.90
34147;DHT22;20423;49.448;9.056;2022-12-26T02:05:48;9.10;99.90
34147;DHT22;20423;49.448;9.056;2022-12-26T02:08:18;9.10;99.90
34147;DHT22;20423;49.448;9.056;2022-12-26T02:10:50;9.20;99.90
34147;DHT22;20423;49.448;9.056;2022-12-26T02:13:17;9.20;99.90
34147;DHT22;20423;49.448;9.056;2022-12-26T02:15:45;9.20;99.90
34147;DHT22;20423;49.448;9.056;2022-12-26T02:18:11;9.10;99.90
34147;DHT22;20423;49.448;9.056;2022-12-26T02:21:09;9.20;99.90
34147;DHT22;20423;49.448;9.056;2022-12-26T02:27:12;9.10;99.90
34147;DHT22;20423;49.448;9.056;2022-12-26T02:30:04;9.10;99.90
34147;DHT22;20423;49.448;9.056;2022-12-26T02:32:54;9.10;99.90
34147;DHT22;20423;49.448;9.056;2022-12-26T02:41:45;9.00;99.90
34147;DHT22;20423;49.448;9.056;2022-12-26T02:44:21;9.00;99.90
34147;DHT22;20423;49.448;9.056;2022-12-26T02:47:36;9.00;99.90
34147;DHT22;20423;49.448;9.056;2022-12-26T02:50:38;9.00;99.90
34147;DHT22;20423;49.448;9.056;2022-12-26T02:53:47;9.00;99.90
34147;DHT22;20423;49.448;9.056;2022-12-26T02:56:56;9.00;99.90
34147;DHT22;20423;49.448;9.056;2022-12-26T02:59:53;9.00;99.90
34147;DHT22;20423;49.448;9.056;2022-12-26T03:03:00;9.00;99.90
34147;DHT22;20423;49.448;9.056;2022-12-26T03:08:37;8.90;99.90
34147;DHT22;20423;49.448;9.056;2022-12-26T03:11:26;9.00;99.90
34147;DHT22;20423;49.448;9.056;2022-12-26T03:14:24;8.90;99.90
34147;DHT22;20423;49.448;9.056;2022-12-26T03:16:59;8.90;99.90
34147;DHT22;20423;49.448;9.056;2022-12-26T03:20:09;8.90;99.90
34147;DHT22;20423;49.448;9.056;2022-12-26T03:25:16;9.00;99.90
34147;DHT22;20423;49.448;9.056;2022-12-26T03:28:02;8.90;99.90
34147;DHT22;20423;49.448;9.056;2022-12-26T03:30:28;8.90;99.90
34147;DHT22;20423;49.448;9.056;2022-12-26T03:33:47;8.80;99.90
34147;DHT22;20423;49.448;9.056;2022-12-26T03:48:36;8.90;99.90
34147;DHT22;20423;49.448;9.056;2022-12-26T03:51:32;8.90;99.90
34147;DHT22;20423;49.448;9.056;2022-12-26T03:57:34;8.90;99.90
34147;DHT22;20423;49.448;9.056;2022-12-26T04:00:20;8.80;99.90
34147;DHT22;20423;49.448;9.056;2022-12-26T04:03:09;8.90;99.90
34147;DHT22;20423;49.448;9.056;2022-12-26T04:05:55;8.90;99.90
34147;DHT22;20423;49.448;9.056;2022-12-26T04:08:58;9.00;99.90
34147;DHT22;20423;49.448;9.056;2022-12-26T04:11:44;8.90;99.90
34147;DHT22;20423;49.448;9.056;2022-12-26T04:14:39;9.00;99.90
34147;DHT22;20423;49.448;9.056;2022-12-26T04:17:53;9.10;99.90
34147;DHT22;20423;49.448;9.056;2022-12-26T04:23:45;9.20;99.90
34147;DHT22;20423;49.448;9.056;2022-12-26T04:26:41;9.30;99.90
34147;DHT22;20423;49.448;9.056;2022-12-26T04:29:26;9.30;99.90
34147;DHT22;20423;49.448;9.056;2022-12-26T04:32:16;9.30;99.90
34147;DHT22;20423;49.448;9.056;2022-12-26T04:35:17;9.40;99.90
34147;DHT22;20423;49.448;9.056;2022-12-26T04:38:04;9.30;99.90
34147;DHT22;20423;49.448;9.056;2022-12-26T04:40:53;9.20;99.90
34147;DHT22;20423;49.448;9.056;2022-12-26T04:43:39;9.10;99.90
34147;DHT22;20423;49.448;9.056;2022-12-26T04:46:25;9.10;99.90
34147;DHT22;20423;49.448;9.056;2022-12-26T04:48:52;9.10;99.90
34147;DHT22;20423;49.448;9.056;2022-12-26T04:51:37;9.00;99.90
34147;DHT22;20423;49.448;9.056;2022-12-26T04:54:04;9.10;99.90
34147;DHT22;20423;49.448;9.056;2022-12-26T04:56:30;9.10;99.90
34147;DHT22;20423;49.448;9.056;2022-12-26T04:58:55;9.20;99.90
34147;DHT22;20423;49.448;9.056;2022-12-26T05:01:21;9.20;99.90
34147;DHT22;20423;49.448;9.056;2022-12-26T05:04:05;9.20;99.90
34147;DHT22;20423;49.448;9.056;2022-12-26T05:06:50;9.30;99.90
34147;DHT22;20423;49.448;9.056;2022-12-26T05:13:21;9.20;99.90
34147;DHT22;20423;49.448;9.056;2022-12-26T05:15:47;9.10;99.90
34147;DHT22;20423;49.448;9.056;2022-12-26T05:18:31;9.00;99.90
34147;DHT22;20423;49.448;9.056;2022-12-26T05:21:17;9.00;99.90
34147;DHT22;20423;49.448;9.056;2022-12-26T05:24:02;8.90;99.90
34147;DHT22;20423;49.448;9.056;2022-12-26T05:26:46;8.90;99.90
34147;DHT22;20423;49.448;9.056;2022-12-26T05:29:31;8.90;99.90
34147;DHT22;20423;49.448;9.056;2022-12-26T05:31:56;8.80;99.90
34147;DHT22;20423;49.448;9.056;2022-12-26T05:34:22;8.80;99.90
34147;DHT22;20423;49.448;9.056;2022-12-26T05:36:51;8.90;99.90
34147;DHT22;20423;49.448;9.056;2022-12-26T05:39:18;8.90;99.90
34147;DHT22;20423;49.448;9.056;2022-12-26T05:41:44;8.90;99.90
34147;DHT22;20423;49.448;9.056;2022-12-26T05:44:10;8.80;99.90
34147;DHT22;20423;49.448;9.056;2022-12-26T05:46:36;8.80;99.90
34147;DHT22;20423;49.448;9.056;2022-12-26T05:49:04;8.70;99.90
34147;DHT22;20423;49.448;9.056;2022-12-26T05:51:32;8.70;99.90
34147;DHT22;20423;49.448;9.056;2022-12-26T05:53:57;8.60;99.90
34147;DHT22;20423;49.448;9.056;2022-12-26T05:56:23;8.60;99.90
34147;DHT22;20423;49.448;9.056;2022-12-26T05:58:57;8.60;99.90
34147;DHT22;20423;49.448;9.056;2022-12-26T06:01:23;8.60;99.90
34147;DHT22;20423;49.448;9.056;2022-12-26T06:03:52;8.60;99.90
34147;DHT22;20423;49.448;9.056;2022-12-26T06:06:19;8.50;99.90
34147;DHT22;20423;49.448;9.056;2022-12-26T06:08:49;8.60;99.90
34147;DHT22;20423;49.448;9.056;2022-12-26T06:11:16;8.50;99.90
34147;DHT22;20423;49.448;9.056;2022-12-26T06:13:42;8.50;99.90
34147;DHT22;20423;49.448;9.056;2022-12-26T06:16:10;8.60;99.90
34147;DHT22;20423;49.448;9.056;2022-12-26T06:18:37;8.70;99.90
34147;DHT22;20423;49.448;9.056;2022-12-26T06:21:11;8.70;99.90
34147;DHT22;20423;49.448;9.056;2022-12-26T06:24:14;8.70;99.90
34147;DHT22;20423;49.448;9.056;2022-12-26T06:26:40;8.70;99.90
34147;DHT22;20423;49.448;9.056;2022-12-26T06:29:06;8.60;99.90
34147;DHT22;20423;49.448;9.056;2022-12-26T06:31:35;8.60;99.90
34147;DHT22;20423;49.448;9.056;2022-12-26T06:34:00;8.60;99.90
34147;DHT22;20423;49.448;9.056;2022-12-26T06:36:27;8.70;99.90
34147;DHT22;20423;49.448;9.056;2022-12-26T06:38:53;8.70;99.90
34147;DHT22;20423;49.448;9.056;2022-12-26T06:41:21;8.70;99.90
34147;DHT22;20423;49.448;9.056;2022-12-26T06:43:47;8.70;99.90
34147;DHT22;20423;49.448;9.056;2022-12-26T06:46:17;8.70;99.90
34147;DHT22;20423;49.448;9.056;2022-12-26T06:48:43;8.70;99.90
34147;DHT22;20423;49.448;9.056;2022-12-26T06:51:11;8.70;99.90
34147;DHT22;20423;49.448;9.056;2022-12-26T06:53:38;8.70;99.90
34147;DHT22;20423;49.448;9.056;2022-12-26T06:56:12;8.70;99.90
34147;DHT22;20423;49.448;9.056;2022-12-26T06:58:38;8.70;99.90
34147;DHT22;20423;49.448;9.056;2022-12-26T07:01:06;8.70;99.90
34147;DHT22;20423;49.448;9.056;2022-12-26T07:03:32;8.70;99.90
34147;DHT22;20423;49.448;9.056;2022-12-26T07:06:05;8.60;99.90
34147;DHT22;20423;49.448;9.056;2022-12-26T07:08:32;8.60;99.90
34147;DHT22;20423;49.448;9.056;2022-12-26T07:10:59;8.50;99.90
34147;DHT22;20423;49.448;9.056;2022-12-26T07:13:31;8.50;99.90
34147;DHT22;20423;49.448;9.056;2022-12-26T07:16:12;8.40;99.90
34147;DHT22;20423;49.448;9.056;2022-12-26T07:18:38;8.40;99.90
34147;DHT22;20423;49.448;9.056;2022-12-26T07:21:08;8.40;99.90
34147;DHT22;20423;49.448;9.056;2022-12-26T07:23:34;8.40;99.90
34147;DHT22;20423;49.448;9.056;2022-12-26T07:26:01;8.30;99.90
34147;DHT22;20423;49.448;9.056;2022-12-26T07:28:27;8.30;99.90
34147;DHT22;20423;49.448;9.056;2022-12-26T07:30:53;8.30;99.90
34147;DHT22;20423;49.448;9.056;2022-12-26T07:33:34;8.30;99.90
34147;DHT22;20423;49.448;9.056;2022-12-26T07:36:02;8.30;99.90
34147;DHT22;20423;49.448;9.056;2022-12-26T07:38:28;8.30;99.90
34147;DHT22;20423;49.448;9.056;2022-12-26T07:40:54;8.30;99.90
34147;DHT22;20423;49.448;9.056;2022-12-26T07:43:21;8.30;99.90
34147;DHT22;20423;49.448;9.056;2022-12-26T07:45:49;8.30;99.90
34147;DHT22;20423;49.448;9.056;2022-12-26T07:48:15;8.30;99.90
34147;DHT22;20423;49.448;9.056;2022-12-26T07:50:41;8.30;99.90
34147;DHT22;20423;49.448;9.056;2022-12-26T07:53:12;8.30;99.90
34147;DHT22;20423;49.448;9.056;2022-12-26T07:56:09;8.30;99.90
34147;DHT22;20423;49.448;9.056;2022-12-26T07:58:35;8.40;99.90
34147;DHT22;20423;49.448;9.056;2022-12-26T08:01:02;8.40;99.90
34147;DHT22;20423;49.448;9.056;2022-12-26T08:03:28;8.40;99.90
34147;DHT22;20423;49.448;9.056;2022-12-26T08:05:54;8.40;99.90
34147;DHT22;20423;49.448;9.056;2022-12-26T08:08:20;8.40;99.90
34147;DHT22;20423;49.448;9.056;2022-12-26T08:10:45;8.40;99.90
34147;DHT22;20423;49.448;9.056;2022-12-26T08:13:12;8.40;99.90
34147;DHT22;20423;49.448;9.056;2022-12-26T08:15:38;8.40;99.90
34147;DHT22;20423;49.448;9.056;2022-12-26T08:18:04;8.40;99.90
34147;DHT22;20423;49.448;9.056;2022-12-26T08:20:30;8.40;99.90
34147;DHT22;20423;49.448;9.056;2022-12-26T08:22:55;8.50;99.90
34147;DHT22;20423;49.448;9.056;2022-12-26T08:25:49;8.40;99.90
34147;DHT22;20423;49.448;9.056;2022-12-26T08:28:15;8.40;99.90
34147;DHT22;20423;49.448;9.056;2022-12-26T08:30:41;8.50;99.90
34147;DHT22;20423;49.448;9.056;2022-12-26T08:33:08;8.40;99.90
34147;DHT22;20423;49.448;9.056;2022-12-26T08:35:34;8.40;99.90
34147;DHT22;20423;49.448;9.056;2022-12-26T08:38:01;8.40;99.90
34147;DHT22;20423;49.448;9.056;2022-12-26T08:40:26;8.40;99.90
34147;DHT22;20423;49.448;9.056;2022-12-26T08:42:52;8.40;99.90
34147;DHT22;20423;49.448;9.056;2022-12-26T08:45:18;8.40;99.90
34147;DHT22;20423;49.448;9.056;2022-12-26T08:47:44;8.40;99.90
34147;DHT22;20423;49.448;9.056;2022-12-26T08:50:10;8.40;99.90
34147;DHT22;20423;49.448;9.056;2022-12-26T08:52:35;8.40;99.90
34147;DHT22;20423;49.448;9.056;2022-12-26T08:55:01;8.40;99.90
34147;DHT22;20423;49.448;9.056;2022-12-26T08:57:27;8.40;99.90
34147;DHT22;20423;49.448;9.056;2022-12-26T08:59:53;8.40;99.90
34147;DHT22;20423;49.448;9.056;2022-12-26T09:02:19;8.30;99.90
34147;DHT22;20423;49.448;9.056;2022-12-26T09:04:44;8.40;99.90
34147;DHT22;20423;49.448;9.056;2022-12-26T09:07:10;8.30;99.90
34147;DHT22;20423;49.448;9.056;2022-12-26T09:09:36;8.30;99.90
34147;DHT22;20423;49.448;9.056;2022-12-26T09:12:02;8.30;99.90
34147;DHT22;20423;49.448;9.056;2022-12-26T09:14:28;8.30;99.90
34147;DHT22;20423;49.448;9.056;2022-12-26T09:16:53;8.30;99.90
34147;DHT22;20423;49.448;9.056;2022-12-26T09:19:20;8.30;99.90
34147;DHT22;20423;49.448;9.056;2022-12-26T09:21:47;8.30;99.90
34147;DHT22;20423;49.448;9.056;2022-12-26T09:24:15;8.30;99.90
34147;DHT22;20423;49.448;9.056;2022-12-26T09:26:41;8.30;99.90
34147;DHT22;20423;49.448;9.056;2022-12-26T09:29:09;8.30;99.90
34147;DHT22;20423;49.448;9.056;2022-12-26T09:31:35;8.40;99.90
34147;DHT22;20423;49.448;9.056;2022-12-26T09:34:05;8.30;99.90
34147;DHT22;20423;49.448;9.056;2022-12-26T09:36:33;8.30;99.90
34147;DHT22;20423;49.448;9.056;2022-12-26T09:39:00;8.30;99.90
34147;DHT22;20423;49.448;9.056;2022-12-26T09:41:39;8.20;99.90
34147;DHT22;20423;49.448;9.056;2022-12-26T09:44:18;8.30;99.90
34147;DHT22;20423;49.448;9.056;2022-12-26T09:46:59;8.20;99.90
34147;DHT22;20423;49.448;9.056;2022-12-26T09:49:37;8.30;99.90
34147;DHT22;20423;49.448;9.056;2022-12-26T09:52:13;8.30;99.90
34147;DHT22;20423;49.448;9.056;2022-12-26T09:54:56;8.20;99.90
34147;DHT22;20423;49.448;9.056;2022-12-26T09:57:50;8.20;99.90
34147;DHT22;20423;49.448;9.056;2022-12-26T10:00:27;8.20;99.90
34147;DHT22;20423;49.448;9.056;2022-12-26T10:02:56;8.20;99.90
34147;DHT22;20423;49.448;9.056;2022-12-26T10:05:39;8.20;99.90
34147;DHT22;20423;49.448;9.056;2022-12-26T10:08:33;8.30;99.90
34147;DHT22;20423;49.448;9.056;2022-12-26T10:11:01;8.30;99.90
34147;DHT22;20423;49.448;9.056;2022-12-26T10:22:03;8.20;99.90
34147;DHT22;20423;49.448;9.056;2022-12-26T10:24:36;8.10;99.90
34147;DHT22;20423;49.448;9.056;2022-12-26T10:27:09;8.10;99.90
34147;DHT22;20423;49.448;9.056;2022-12-26T10:29:41;8.10;99.90
34147;DHT22;20423;49.448;9.056;2022-12-26T10:32:15;8.10;99.90
34147;DHT22;20423;49.448;9.056;2022-12-26T10:34:48;8.10;99.90
34147;DHT22;20423;49.448;9.056;2022-12-26T10:39:56;8.10;99.90
34147;DHT22;20423;49.448;9.056;2022-12-26T10:42:35;8.10;99.90
34147;DHT22;20423;49.448;9.056;2022-12-26T10:45:35;8.10;99.90
34147;DHT22;20423;49.448;9.056;2022-12-26T10:48:03;8.10;99.90
34147;DHT22;20423;49.448;9.056;2022-12-26T10:50:31;8.10;99.90
34147;DHT22;20423;49.448;9.056;2022-12-26T10:52:59;8.10;99.90
34147;DHT22;20423;49.448;9.056;2022-12-26T10:55:30;8.10;99.90
34147;DHT22;20423;49.448;9.056;2022-12-26T10:58:20;8.10;99.90
34147;DHT22;20423;49.448;9.056;2022-12-26T11:00:44;8.10;99.90
34147;DHT22;20423;49.448;9.056;2022-12-26T11:03:11;8.10;99.90
34147;DHT22;20423;49.448;9.056;2022-12-26T11:05:40;8.10;99.90
34147;DHT22;20423;49.448;9.056;2022-12-26T11:10:34;8.10;99.90
34147;DHT22;20423;49.448;9.056;2022-12-26T11:13:03;8.10;99.90
34147;DHT22;20423;49.448;9.056;2022-12-26T11:15:31;8.10;99.90
34147;DHT22;20423;49.448;9.056;2022-12-26T11:20:52;8.20;99.90
34147;DHT22;20423;49.448;9.056;2022-12-26T11:23:25;8.30;99.90
34147;DHT22;20423;49.448;9.056;2022-12-26T11:25:56;8.20;99.90
34147;DHT22;20423;49.448;9.056;2022-12-26T11:28:35;8.10;99.90
34147;DHT22;20423;49.448;9.056;2022-12-26T11:31:05;8.10;99.90
34147;DHT22;20423;49.448;9.056;2022-12-26T11:33:40;8.20;99.90
34147;DHT22;20423;49.448;9.056;2022-12-26T11:38:59;8.10;99.90
34147;DHT22;20423;49.448;9.056;2022-12-26T11:44:01;8.10;99.90
34147;DHT22;20423;49.448;9.056;2022-12-26T11:49:03;8.20;99.90
34147;DHT22;20423;49.448;9.056;2022-12-26T11:51:41;8.10;99.90
34147;DHT22;20423;49.448;9.056;2022-12-26T11:54:26;8.10;99.90
34147;DHT22;20423;49.448;9.056;2022-12-26T11:59:32;8.20;99.90
34147;DHT22;20423;49.448;9.056;2022-12-26T12:02:18;8.20;99.90
34147;DHT22;20423;49.448;9.056;2022-12-26T12:04:46;8.20;99.90
34147;DHT22;20423;49.448;9.056;2022-12-26T12:10:01;8.20;99.90
34147;DHT22;20423;49.448;9.056;2022-12-26T12:15:28;8.20;99.90
34147;DHT22;20423;49.448;9.056;2022-12-26T12:23:59;8.40;99.90
34147;DHT22;20423;49.448;9.056;2022-12-26T12:26:39;8.50;99.90
34147;DHT22;20423;49.448;9.056;2022-12-26T12:31:46;8.40;99.90
34147;DHT22;20423;49.448;9.056;2022-12-26T12:48:32;8.30;99.90
34147;DHT22;20423;49.448;9.056;2022-12-26T13:02:23;8.40;99.90
34147;DHT22;20423;49.448;9.056;2022-12-26T13:05:01;8.40;99.90
34147;DHT22;20423;49.448;9.056;2022-12-26T13:07:36;8.50;99.90
34147;DHT22;20423;49.448;9.056;2022-12-26T13:10:21;8.50;99.90
34147;DHT22;20423;49.448;9.056;2022-12-26T13:12:48;8.50;99.90
34147;DHT22;20423;49.448;9.056;2022-12-26T13:15:28;8.50;99.90
34147;DHT22;20423;49.448;9.056;2022-12-26T13:18:05;8.60;99.90
34147;DHT22;20423;49.448;9.056;2022-12-26T13:20:39;8.60;99.90
34147;DHT22;20423;49.448;9.056;2022-12-26T13:23:34;8.50;99.90
34147;DHT22;20423;49.448;9.056;2022-12-26T13:26:23;8.50;99.90
34147;DHT22;20423;49.448;9.056;2022-12-26T13:29:34;8.50;99.90
34147;DHT22;20423;49.448;9.056;2022-12-26T13:32:20;8.50;99.90
34147;DHT22;20423;49.448;9.056;2022-12-26T13:34:47;8.50;99.90
34147;DHT22;20423;49.448;9.056;2022-12-26T13:40:17;8.50;99.90
34147;DHT22;20423;49.448;9.056;2022-12-26T13:43:40;8.40;99.90
34147;DHT22;20423;49.448;9.056;2022-12-26T13:45:59;8.40;99.90
34147;DHT22;20423;49.448;9.056;2022-12-26T13:51:04;8.30;99.90
34147;DHT22;20423;49.448;9.056;2022-12-26T13:53:35;8.40;99.90
34147;DHT22;20423;49.448;9.056;2022-12-26T14:07:29;8.30;99.90
34147;DHT22;20423;49.448;9.056;2022-12-26T14:23:30;8.20;99.90
34147;DHT22;20423;49.448;9.056;2022-12-26T14:26:18;8.20;99.90
34147;DHT22;20423;49.448;9.056;2022-12-26T14:29:10;8.20;99.90
34147;DHT22;20423;49.448;9.056;2022-12-26T14:32:05;8.10;99.90
34147;DHT22;20423;49.448;9.056;2022-12-26T14:40:02;8.10;99.90
34147;DHT22;20423;49.448;9.056;2022-12-26T14:42:29;8.10;99.90
34147;DHT22;20423;49.448;9.056;2022-12-26T14:47:52;8.00;99.90
34147;DHT22;20423;49.448;9.056;2022-12-26T14:50:44;8.00;99.90
34147;DHT22;20423;49.448;9.056;2022-12-26T14:59:12;8.00;99.90
34147;DHT22;20423;49.448;9.056;2022-12-26T15:04:22;8.00;99.90
34147;DHT22;20423;49.448;9.056;2022-12-26T15:41:39;7.90;99.90
34147;DHT22;20423;49.448;9.056;2022-12-26T15:46:43;8.00;99.90
34147;DHT22;20423;49.448;9.056;2022-12-26T15:49:47;7.90;99.90
34147;DHT22;20423;49.448;9.056;2022-12-26T15:58:08;7.90;99.90
34147;DHT22;20423;49.448;9.056;2022-12-26T16:00:49;8.00;99.90
34147;DHT22;20423;49.448;9.056;2022-12-26T16:06:23;7.90;99.90
34147;DHT22;20423;49.448;9.056;2022-12-26T16:11:57;7.80;99.90
34147;DHT22;20423;49.448;9.056;2022-12-26T16:14:35;7.80;99.90
34147;DHT22;20423;49.448;9.056;2022-12-26T16:19:38;7.80;99.90
34147;DHT22;20423;49.448;9.056;2022-12-26T16:22:06;7.80;99.90
34147;DHT22;20423;49.448;9.056;2022-12-26T16:24:52;7.80;99.90
34147;DHT22;20423;49.448;9.056;2022-12-26T16:27:21;7.80;99.90
34147;DHT22;20423;49.448;9.056;2022-12-26T16:29:57;7.80;99.90
34147;DHT22;20423;49.448;9.056;2022-12-26T16:32:34;7.80;99.90
34147;DHT22;20423;49.448;9.056;2022-12-26T16:35:00;7.80;99.90
34147;DHT22;20423;49.448;9.056;2022-12-26T16:40:42;7.80;99.90
34147;DHT22;20423;49.448;9.056;2022-12-26T16:45:49;7.80;99.90
34147;DHT22;20423;49.448;9.056;2022-12-26T16:48:20;7.80;99.90
34147;DHT22;20423;49.448;9.056;2022-12-26T16:50:51;7.80;99.90
34147;DHT22;20423;49.448;9.056;2022-12-26T16:53:19;7.80;99.90
34147;DHT22;20423;49.448;9.056;2022-12-26T16:55:51;7.80;99.90
34147;DHT22;20423;49.448;9.056;2022-12-26T16:58:25;7.70;99.90
34147;DHT22;20423;49.448;9.056;2022-12-26T17:01:06;7.70;99.90
34147;DHT22;20423;49.448;9.056;2022-12-26T17:04:01;7.70;99.90
34147;DHT22;20423;49.448;9.056;2022-12-26T17:06:31;7.70;99.90
34147;DHT22;20423;49.448;9.056;2022-12-26T17:09:10;7.70;99.90
34147;DHT22;20423;49.448;9.056;2022-12-26T17:11:44;7.70;99.90
34147;DHT22;20423;49.448;9.056;2022-12-26T17:14:24;7.60;99.90
34147;DHT22;20423;49.448;9.056;2022-12-26T17:17:07;7.50;99.90
34147;DHT22;20423;49.448;9.056;2022-12-26T17:19:35;7.20;99.90
34147;DHT22;20423;49.448;9.056;2022-12-26T17:24:41;7.00;99.90
34147;DHT22;20423;49.448;9.056;2022-12-26T17:27:24;7.00;99.90
34147;DHT22;20423;49.448;9.056;2022-12-26T17:32:48;6.80;99.90
34147;DHT22;20423;49.448;9.056;2022-12-26T17:35:18;6.70;99.90
34147;DHT22;20423;49.448;9.056;2022-12-26T17:37:48;6.60;99.90
34147;DHT22;20423;49.448;9.056;2022-12-26T17:42:51;6.60;99.90
34147;DHT22;20423;49.448;9.056;2022-12-26T17:45:23;6.50;99.90
34147;DHT22;20423;49.448;9.056;2022-12-26T17:47:53;6.50;99.90
34147;DHT22;20423;49.448;9.056;2022-12-26T17:50:20;6.50;99.90
34147;DHT22;20423;49.448;9.056;2022-12-26T17:52:46;6.50;99.90
34147;DHT22;20423;49.448;9.056;2022-12-26T17:55:19;6.50;99.90
34147;DHT22;20423;49.448;9.056;2022-12-26T17:57:49;6.60;99.90
34147;DHT22;20423;49.448;9.056;2022-12-26T18:00:21;6.50;99.90
34147;DHT22;20423;49.448;9.056;2022-12-26T18:02:50;6.40;99.90
34147;DHT22;20423;49.448;9.056;2022-12-26T18:05:19;6.50;99.90
34147;DHT22;20423;49.448;9.056;2022-12-26T18:07:46;6.40;99.90
34147;DHT22;20423;49.448;9.056;2022-12-26T18:10:20;6.40;99.90
34147;DHT22;20423;49.448;9.056;2022-12-26T18:12:47;6.40;99.90
34147;DHT22;20423;49.448;9.056;2022-12-26T18:15:40;6.30;99.90
34147;DHT22;20423;49.448;9.056;2022-12-26T18:18:20;6.20;99.90
34147;DHT22;20423;49.448;9.056;2022-12-26T18:20:46;6.10;99.90
34147;DHT22;20423;49.448;9.056;2022-12-26T18:23:11;6.10;99.90
34147;DHT22;20423;49.448;9.056;2022-12-26T18:25:37;6.10;99.90
34147;DHT22;20423;49.448;9.056;2022-12-26T18:28:03;6.00;99.90
34147;DHT22;20423;49.448;9.056;2022-12-26T18:30:29;6.00;99.90
34147;DHT22;20423;49.448;9.056;2022-12-26T18:33:23;5.90;99.90
34147;DHT22;20423;49.448;9.056;2022-12-26T18:35:48;5.90;99.90
34147;DHT22;20423;49.448;9.056;2022-12-26T18:38:17;5.90;99.90
34147;DHT22;20423;49.448;9.056;2022-12-26T18:40:45;5.90;99.90
34147;DHT22;20423;49.448;9.056;2022-12-26T18:43:12;5.80;99.90
34147;DHT22;20423;49.448;9.056;2022-12-26T18:45:38;5.80;99.90
34147;DHT22;20423;49.448;9.056;2022-12-26T18:48:32;5.80;99.90
34147;DHT22;20423;49.448;9.056;2022-12-26T18:50:58;5.80;99.90
34147;DHT22;20423;49.448;9.056;2022-12-26T18:53:24;5.70;99.90
34147;DHT22;20423;49.448;9.056;2022-12-26T18:55:49;5.70;99.90
34147;DHT22;20423;49.448;9.056;2022-12-26T18:58:15;5.60;99.90
34147;DHT22;20423;49.448;9.056;2022-12-26T19:00:41;5.70;99.90
34147;DHT22;20423;49.448;9.056;2022-12-26T19:03:07;5.70;99.90
34147;DHT22;20423;49.448;9.056;2022-12-26T19:05:33;5.50;99.90
34147;DHT22;20423;49.448;9.056;2022-12-26T19:08:00;5.50;99.90
34147;DHT22;20423;49.448;9.056;2022-12-26T19:10:32;5.50;99.90
34147;DHT22;20423;49.448;9.056;2022-12-26T19:12:58;5.50;99.90
34147;DHT22;20423;49.448;9.056;2022-12-26T19:15:33;5.50;99.90
34147;DHT22;20423;49.448;9.056;2022-12-26T19:17:59;5.40;99.90
34147;DHT22;20423;49.448;9.056;2022-12-26T19:20:26;5.40;99.90
34147;DHT22;20423;49.448;9.056;2022-12-26T19:22:52;5.40;99.90
34147;DHT22;20423;49.448;9.056;2022-12-26T19:25:20;5.40;99.90
34147;DHT22;20423;49.448;9.056;2022-12-26T19:27:47;5.40;99.90
34147;DHT22;20423;49.448;9.056;2022-12-26T19:30:14;5.30;99.90
34147;DHT22;20423;49.448;9.056;2022-12-26T19:32:39;5.30;99.90
34147;DHT22;20423;49.448;9.056;2022-12-26T19:35:07;5.40;99.90
34147;DHT22;20423;49.448;9.056;2022-12-26T19:37:39;5.40;99.90
34147;DHT22;20423;49.448;9.056;2022-12-26T19:40:06;5.40;99.90
34147;DHT22;20423;49.448;9.056;2022-12-26T19:42:32;5.40;99.90
34147;DHT22;20423;49.448;9.056;2022-12-26T19:44:59;5.40;99.90
34147;DHT22;20423;49.448;9.056;2022-12-26T19:47:25;5.50;99.90
34147;DHT22;20423;49.448;9.056;2022-12-26T19:49:51;5.50;99.90
34147;DHT22;20423;49.448;9.056;2022-12-26T19:52:17;5.50;99.90
34147;DHT22;20423;49.448;9.056;2022-12-26T19:54:42;5.50;99.90
34147;DHT22;20423;49.448;9.056;2022-12-26T19:57:08;5.50;99.90
34147;DHT22;20423;49.448;9.056;2022-12-26T19:59:35;5.50;99.90
34147;DHT22;20423;49.448;9.056;2022-12-26T20:02:00;5.50;99.90
34147;DHT22;20423;49.448;9.056;2022-12-26T20:04:26;5.60;99.90